Time;durP1;ratioP1;P1;durP2;ratioP2;P2;SDS_P1;SDS_P2;PMS_P1;PMS_P2;Temp;Humidity;BMP_temperature;BMP_pressure;BME280_temperature;BME280_humidity;BME280_pressure;Samples;Min_cycle;Max_cycle;Signal;HPM_P1;HPM_P2
2023/03/30 00:01:02;;;;;;;;;;;;;;;-142.25;100.00;58004.16;5030299;28;19988;-62
2023/03/30 00:03:28;;;;;;;;;;;;;;;-142.25;100.00;58004.16;5037634;28;19924;-60
2023/03/30 00:05:56;;;;;;;;;;;;;;;-142.25;100.00;58004.16;5029100;28;19925;-60
2023/03/30 00:08:29;;;;;;;;;;;;;;;-142.25;100.00;58004.16;5026592;28;19928;-62
2023/03/30 00:11:02;;;;;;;;;;;;;;;-142.25;100.00;58004.16;5028721;28;20444;-61
2023/03/30 00:13:29;;;;;;;;;;;;;;;-142.25;100.00;58004.16;5028186;28;19927;-60
2023/03/30 00:15:54;;;;;;;;;;;;;;;-142.25;100.00;58004.16;5028091;28;19929;-61
2023/03/30 00:18:20;;;;;;;;;;;;;;;-142.25;100.00;58004.16;5025781;28;19920;-61
2023/03/30 00:20:49;;;;;;;;;;;;;;;-142.25;100.00;58004.16;5027389;28;19932;-61
2023/03/30 00:23:15;;;;;;;;;;;;;;;-142.25;100.00;58004.16;5028210;28;19987;-61
2023/03/30 00:25:41;;;;;;;;;;;;;;;-142.25;100.00;58004.16;5028159;28;20415;-61
2023/03/30 00:28:07;;;;;;;;;;;;;;;-142.25;100.00;58004.16;5028613;28;19916;-61
2023/03/30 00:30:32;;;;;;;;;;;;;;;-142.25;100.00;58004.16;5058505;28;20259;-61
2023/03/30 00:32:58;;;;;;;;;;;;;;;-142.25;100.00;58004.16;5037419;28;20051;-62
2023/03/30 00:35:25;;;;;;;;;;;;;;;-142.25;100.00;58004.16;5027659;28;19925;-62
2023/03/30 00:37:50;;;;;;;;;;;;;;;-142.25;100.00;58004.16;5026941;28;19968;-60
2023/03/30 00:40:20;;;;;;;;;;;;;;;-142.25;100.00;58004.16;5025380;28;19992;-60
2023/03/30 00:42:47;;;;;;;;;;;;;;;-142.25;100.00;58004.16;5028389;28;19932;-64
2023/03/30 00:45:17;;;;;;;;;;;;;;;-142.25;100.00;58004.16;5029990;28;19956;-63
2023/03/30 00:47:47;;;;;;;;;;;;;;;-142.25;100.00;58004.16;5027975;28;19925;-61
2023/03/30 00:50:13;;;;;;;;;;;;;;;-142.25;100.00;58004.16;5027464;28;20388;-61
2023/03/30 00:52:40;;;;;;;;;;;;;;;-142.25;100.00;58004.16;5028679;28;19929;-62
2023/03/30 00:55:07;;;;;;;;;;;;;;;-142.25;100.00;58004.16;5028743;28;19982;-62
2023/03/30 00:57:35;;;;;;;;;;;;;;;-142.25;100.00;58004.16;5035782;28;19920;-62
2023/03/30 01:00:01;;;;;;;;;;;;;;;-142.25;100.00;58004.16;5027080;28;19921;-61
2023/03/30 01:02:30;;;;;;;;;;;;;;;-142.25;100.00;58004.16;5028335;28;19931;-62
2023/03/30 01:04:59;;;;;;;;;;;;;;;-142.25;100.00;58004.16;5012904;28;19994;-61
2023/03/30 01:07:25;;;;;;;;;;;;;;;-142.25;100.00;58004.16;5035264;28;19920;-62
2023/03/30 01:09:51;;;;;;;;;;;;;;;-142.25;100.00;58004.16;5028098;28;20445;-62
2023/03/30 01:12:18;;;;;;;;;;;;;;;-142.25;100.00;58004.16;5029872;28;19955;-59
2023/03/30 01:14:45;;;;;;;;;;;;;;;-142.25;100.00;58004.16;5030197;28;19924;-61
2023/03/30 01:17:18;;;;;;;;;;;;;;;-142.25;100.00;58004.16;5029285;28;20018;-63
2023/03/30 01:19:59;;;;;;;;;;;;;;;-142.25;100.00;58004.16;5029496;28;19924;-62
2023/03/30 01:22:40;;;;;;;;;;;;;;;-142.25;100.00;58004.16;5029225;28;20092;-60
2023/03/30 01:25:25;;;;;;;;;;;;;;;-142.25;100.00;58004.16;5028024;28;19932;-65
2023/03/30 01:28:09;;;;;;;;;;;;;;;-142.25;100.00;58004.16;5030599;28;19931;-62
2023/03/30 01:30:38;;;;;;;;;;;;;;;-142.25;100.00;58004.16;5029862;28;19954;-62
2023/03/30 01:33:05;;;;;;;;;;;;;;;-142.25;100.00;58004.16;5029799;28;19924;-62
2023/03/30 01:35:57;;;;;;;;;;;;;;;-142.25;100.00;58004.16;5028936;28;20315;-62
2023/03/30 01:38:41;;;;;;;;;;;;;;;-142.25;100.00;58004.16;5023084;28;19921;-62
2023/03/30 01:41:08;;;;;;;;;;;;;;;-142.25;100.00;58004.16;5042109;28;19917;-60
2023/03/30 01:43:38;;;;;;;;;;;;;;;-142.25;100.00;58004.16;5031569;28;19966;-61
2023/03/30 01:46:12;;;;;;;;;;;;;;;-142.25;100.00;58004.16;5027842;28;20052;-60
2023/03/30 01:48:44;;;;;;;;;;;;;;;-142.25;100.00;58004.16;5060723;28;20011;-60
2023/03/30 01:51:15;;;;;;;;;;;;;;;-142.25;100.00;58004.16;5029863;28;19987;-61
2023/03/30 01:53:45;;;;;;;;;;;;;;;-142.25;100.00;58004.16;5046135;28;19920;-61
2023/03/30 01:56:11;;;;;;;;;;;;;;;-142.25;100.00;58004.16;5034336;28;19958;-60
2023/03/30 01:58:36;;;;;;;;;;;;;;;-142.25;100.00;58004.16;5035846;28;20106;-61
2023/03/30 02:01:05;;;;;;;;;;;;;;;-142.25;100.00;58004.16;5031421;28;20372;-60
2023/03/30 02:03:33;;;;;;;;;;;;;;;-142.25;100.00;58004.16;5062048;28;20381;-66
2023/03/30 02:06:05;;;;;;;;;;;;;;;-142.25;100.00;58004.16;5031502;28;19944;-61
2023/03/30 02:08:33;;;;;;;;;;;;;;;-142.25;100.00;58004.16;5032064;28;19921;-61
2023/03/30 02:11:02;;;;;;;;;;;;;;;-142.25;100.00;58004.16;5045560;28;20016;-62
2023/03/30 02:13:28;;;;;;;;;;;;;;;-142.25;100.00;58004.16;5031417;28;20267;-65
2023/03/30 02:16:21;;;;;;;;;;;;;;;-142.25;100.00;58004.16;5036973;28;20059;-61
2023/03/30 02:18:47;;;;;;;;;;;;;;;-142.25;100.00;58004.16;5027426;28;19946;-63
2023/03/30 02:21:12;;;;;;;;;;;;;;;-142.25;100.00;58004.16;5062719;28;20306;-61
2023/03/30 02:23:41;;;;;;;;;;;;;;;-142.25;100.00;58004.16;5030818;28;19925;-61
2023/03/30 02:26:07;;;;;;;;;;;;;;;-142.25;100.00;58004.16;5062688;28;20340;-61
2023/03/30 02:28:33;;;;;;;;;;;;;;;-142.25;100.00;58004.16;5031803;28;20015;-62
2023/03/30 02:30:59;;;;;;;;;;;;;;;-142.25;100.00;58004.16;5030377;28;20016;-61
2023/03/30 02:33:37;;;;;;;;;;;;;;;-142.25;100.00;58004.16;5035404;28;20366;-62
2023/03/30 02:36:05;;;;;;;;;;;;;;;-142.25;100.00;58004.16;5030286;28;20019;-62
2023/03/30 02:38:43;;;;;;;;;;;;;;;-142.25;100.00;58004.16;5038318;28;20510;-61
2023/03/30 02:41:18;;;;;;;;;;;;;;;-142.25;100.00;58004.16;5030708;28;19928;-62
2023/03/30 02:43:55;;;;;;;;;;;;;;;-142.25;100.00;58004.16;5039691;28;20382;-61
2023/03/30 02:46:21;;;;;;;;;;;;;;;-142.25;100.00;58004.16;5062681;28;19936;-62
2023/03/30 02:48:48;;;;;;;;;;;;;;;-142.25;100.00;58004.16;5024290;28;19959;-61
2023/03/30 02:51:20;;;;;;;;;;;;;;;-142.25;100.00;58004.16;5031171;28;20545;-61
2023/03/30 02:54:04;;;;;;;;;;;;;;;-142.25;100.00;58004.16;5032037;28;19978;-61
2023/03/30 02:57:11;;;;;;;;;;;;;;;-142.25;100.00;58004.16;5031118;28;19928;-62
2023/03/30 02:59:43;;;;;;;;;;;;;;;-142.25;100.00;58004.16;5030839;28;20458;-61
2023/03/30 03:02:12;;;;;;;;;;;;;;;-142.25;100.00;58004.16;5027792;28;19921;-61
2023/03/30 03:04:42;;;;;;;;;;;;;;;-142.25;100.00;58004.16;5026099;28;20315;-61
2023/03/30 03:07:31;;;;;;;;;;;;;;;-142.25;100.00;58004.16;5043691;28;20356;-61
2023/03/30 03:09:56;;;;;;;;;;;;;;;-142.25;100.00;58004.16;5026592;28;19925;-61
2023/03/30 03:12:22;;;;;;;;;;;;;;;-142.25;100.00;58004.16;5031615;28;19926;-61
2023/03/30 03:14:48;;;;;;;;;;;;;;;-142.25;100.00;58004.16;5046674;28;20441;-61
2023/03/30 03:17:20;;;;;;;;;;;;;;;-142.25;100.00;58004.16;5033095;28;19943;-61
2023/03/30 03:19:47;;;;;;;;;;;;;;;-142.25;100.00;58004.16;5030426;28;19932;-63
2023/03/30 03:22:13;;;;;;;;;;;;;;;-142.25;100.00;58004.16;5032147;28;20026;-59
2023/03/30 03:24:39;;;;;;;;;;;;;;;-142.25;100.00;58004.16;5045328;28;19976;-60
2023/03/30 03:27:31;;;;;;;;;;;;;;;-142.25;100.00;58004.16;4992023;28;20102;-60
2023/03/30 03:30:26;;;;;;;;;;;;;;;-142.25;100.00;58004.16;4997203;28;20404;-59
2023/03/30 03:33:02;;;;;;;;;;;;;;;-142.25;100.00;58004.16;4984602;28;19925;-60
2023/03/30 03:35:30;;;;;;;;;;;;;;;-142.25;100.00;58004.16;4982129;28;19929;-61
2023/03/30 03:37:57;;;;;;;;;;;;;;;-142.25;100.00;58004.16;4983446;28;20388;-60
2023/03/30 03:40:25;;;;;;;;;;;;;;;-142.25;100.00;58004.16;5003315;28;19926;-59
2023/03/30 03:42:51;;;;;;;;;;;;;;;-142.25;100.00;58004.16;4988628;28;20426;-60
2023/03/30 03:45:17;;;;;;;;;;;;;;;-142.25;100.00;58004.16;4984788;28;19925;-62
2023/03/30 03:47:55;;;;;;;;;;;;;;;-142.25;100.00;58004.16;4981235;28;19933;-59
2023/03/30 03:50:31;;;;;;;;;;;;;;;-142.25;100.00;58004.16;4987969;28;19925;-59
2023/03/30 03:52:57;;;;;;;;;;;;;;;-142.25;100.00;58004.16;4980944;28;19979;-60
2023/03/30 03:55:23;;;;;;;;;;;;;;;-142.25;100.00;58004.16;4984466;28;20096;-61
2023/03/30 03:57:50;;;;;;;;;;;;;;;-142.25;100.00;58004.16;4988237;28;20581;-59
2023/03/30 04:00:16;;;;;;;;;;;;;;;-142.25;100.00;58004.16;4987852;28;20428;-60
2023/03/30 04:02:44;;;;;;;;;;;;;;;-142.25;100.00;58004.16;4980157;28;19924;-64
2023/03/30 04:05:11;;;;;;;;;;;;;;;-142.25;100.00;58004.16;5020679;28;19921;-60
2023/03/30 04:07:37;;;;;;;;;;;;;;;-142.25;100.00;58004.16;5032247;28;20300;-60
2023/03/30 04:10:03;;;;;;;;;;;;;;;-142.25;100.00;58004.16;5031714;28;19931;-60
2023/03/30 04:12:47;;;;;;;;;;;;;;;-142.25;100.00;58004.16;5029689;28;20504;-60
2023/03/30 04:15:48;;;;;;;;;;;;;;;-142.25;100.00;58004.16;5019952;28;20255;-60
2023/03/30 04:18:32;;;;;;;;;;;;;;;-142.25;100.00;58004.16;5004113;28;19928;-61
2023/03/30 04:21:28;;;;;;;;;;;;;;;-142.25;100.00;58004.16;5017028;28;19960;-60
2023/03/30 04:24:34;;;;;;;;;;;;;;;-142.25;100.00;58004.16;5001286;28;20281;-59
2023/03/30 04:27:28;;;;;;;;;;;;;;;-142.25;100.00;58004.16;4965482;28;20191;-61
2023/03/30 04:30:08;;;;;;;;;;;;;;;-142.25;100.00;58004.16;4964086;28;19930;-60
2023/03/30 04:33:03;;;;;;;;;;;;;;;-142.25;100.00;58004.16;4964390;28;19925;-60
2023/03/30 04:35:47;;;;;;;;;;;;;;;-142.25;100.00;58004.16;4964154;28;19980;-60
2023/03/30 04:39:06;;;;;;;;;;;;;;;-142.25;100.00;58004.16;4946526;28;19926;-60
2023/03/30 04:41:53;;;;;;;;;;;;;;;-142.25;100.00;58004.16;4965028;28;20334;-59
2023/03/30 04:44:41;;;;;;;;;;;;;;;-142.25;100.00;58004.16;4965493;28;20479;-60
2023/03/30 04:47:36;;;;;;;;;;;;;;;-142.25;100.00;58004.16;4958708;28;19922;-59
2023/03/30 04:50:20;;;;;;;;;;;;;;;-142.25;100.00;58004.16;4948897;28;20027;-60
2023/03/30 04:53:04;;;;;;;;;;;;;;;-142.25;100.00;58004.16;4937334;28;19937;-61
2023/03/30 04:55:48;;;;;;;;;;;;;;;-142.25;100.00;58004.16;4933960;28;20021;-61
2023/03/30 04:58:32;;;;;;;;;;;;;;;-142.25;100.00;58004.16;4958014;28;19922;-60
2023/03/30 05:01:16;;;;;;;;;;;;;;;-142.25;100.00;58004.16;4940936;28;19965;-60
2023/03/30 05:03:55;;;;;;;;;;;;;;;-142.25;100.00;58004.16;5005348;28;19982;-61
2023/03/30 05:06:33;;;;;;;;;;;;;;;-142.25;100.00;58004.16;5022680;28;20501;-61
2023/03/30 05:09:17;;;;;;;;;;;;;;;-142.25;100.00;58004.16;5024683;28;19931;-60
2023/03/30 05:11:58;;;;;;;;;;;;;;;-142.25;100.00;58004.16;5058833;28;20601;-59
2023/03/30 05:14:43;;;;;;;;;;;;;;;-142.25;100.00;58004.16;5023326;28;20478;-59
2023/03/30 05:17:26;;;;;;;;;;;;;;;-142.25;100.00;58004.16;5029762;28;20457;-59
2023/03/30 05:20:10;;;;;;;;;;;;;;;-142.25;100.00;58004.16;5024221;28;19936;-59
2023/03/30 05:23:02;;;;;;;;;;;;;;;-142.25;100.00;58004.16;5013100;28;19925;-58
2023/03/30 05:25:56;;;;;;;;;;;;;;;-142.25;100.00;58004.16;4956629;28;19926;-58
2023/03/30 05:28:41;;;;;;;;;;;;;;;-142.25;100.00;58004.16;4957419;28;19933;-59
2023/03/30 05:31:27;;;;;;;;;;;;;;;-142.25;100.00;58004.16;4929563;28;19941;-59
2023/03/30 05:34:13;;;;;;;;;;;;;;;-142.25;100.00;58004.16;4958845;28;19926;-59
2023/03/30 05:36:47;;;;;;;;;;;;;;;-142.25;100.00;58004.16;4960170;28;19926;-57
2023/03/30 05:39:28;;;;;;;;;;;;;;;-142.25;100.00;58004.16;4958200;28;19976;-59
2023/03/30 05:42:06;;;;;;;;;;;;;;;-142.25;100.00;58004.16;4954519;28;20840;-57
2023/03/30 05:45:01;;;;;;;;;;;;;;;-142.25;100.00;58004.16;4898532;29;19978;-59
2023/03/30 05:47:45;;;;;;;;;;;;;;;-142.25;100.00;58004.16;4900588;29;20299;-58
2023/03/30 05:50:37;;;;;;;;;;;;;;;-142.25;100.00;58004.16;4899929;29;19922;-60
2023/03/30 05:53:07;;;;;;;;;;;;;;;-142.25;100.00;58004.16;4899844;29;19927;-60
2023/03/30 05:56:06;;;;;;;;;;;;;;;-142.25;100.00;58004.16;4889580;29;19927;-60
2023/03/30 05:58:57;;;;;;;;;;;;;;;-142.25;100.00;58004.16;4875186;29;19928;-55
2023/03/30 06:01:55;;;;;;;;;;;;;;;-142.25;100.00;58004.16;4873658;29;19938;-56
2023/03/30 06:04:21;;;;;;;;;;;;;;;-142.25;100.00;58004.16;4905044;29;20046;-57
2023/03/30 06:06:47;;;;;;;;;;;;;;;-142.25;100.00;58004.16;4908492;29;20539;-55
2023/03/30 06:09:13;;;;;;;;;;;;;;;-142.25;100.00;58004.16;4893308;29;20384;-61
2023/03/30 06:11:38;;;;;;;;;;;;;;;-142.25;100.00;58004.16;4907231;29;20555;-54
2023/03/30 06:14:15;;;;;;;;;;;;;;;-142.25;100.00;58004.16;4894256;29;20259;-57
2023/03/30 06:16:47;;;;;;;;;;;;;;;-142.25;100.00;58004.16;4924533;29;20387;-58
2023/03/30 06:19:13;;;;;;;;;;;;;;;-142.25;100.00;58004.16;4908105;29;19985;-57
2023/03/30 06:21:39;;;;;;;;;;;;;;;-142.25;100.00;58004.16;4925211;28;19962;-59
2023/03/30 06:24:36;;;;;;;;;;;;;;;-142.25;100.00;58004.16;4964368;28;19933;-58
2023/03/30 06:27:02;;;;;;;;;;;;;;;-142.25;100.00;58004.16;4963853;28;20197;-58
2023/03/30 06:29:29;;;;;;;;;;;;;;;-142.25;100.00;58004.16;4962972;28;20500;-59
2023/03/30 06:31:57;;;;;;;;;;;;;;;-142.25;100.00;58004.16;4962727;28;20642;-57
2023/03/30 06:34:58;;;;;;;;;;;;;;;-142.25;100.00;58004.16;4945541;28;19933;-56
2023/03/30 06:37:25;;;;;;;;;;;;;;;-142.25;100.00;58004.16;4992679;28;20104;-56
2023/03/30 06:39:51;;;;;;;;;;;;;;;-142.25;100.00;58004.16;4982290;28;20199;-58
2023/03/30 06:42:17;;;;;;;;;;;;;;;-142.25;100.00;58004.16;4971673;28;19929;-55
2023/03/30 06:45:00;;;;;;;;;;;;;;;-142.25;100.00;58004.16;4996828;28;20590;-56
2023/03/30 06:47:26;;;;;;;;;;;;;;;-142.25;100.00;58004.16;4981988;28;20134;-55
2023/03/30 06:49:51;;;;;;;;;;;;;;;-142.25;100.00;58004.16;5000157;28;19929;-55
2023/03/30 06:52:43;;;;;;;;;;;;;;;-142.25;100.00;58004.16;4976221;28;19926;-57
2023/03/30 06:55:09;;;;;;;;;;;;;;;-142.25;100.00;58004.16;4972955;28;19977;-56
2023/03/30 06:57:35;;;;;;;;;;;;;;;-142.25;100.00;58004.16;4955354;28;20313;-57
2023/03/30 07:00:05;;;;;;;;;;;;;;;-142.25;100.00;58004.16;4960755;28;19980;-57
2023/03/30 07:02:34;;;;;;;;;;;;;;;-142.25;100.00;58004.16;4973556;28;19921;-56
2023/03/30 07:05:07;;;;;;;;;;;;;;;-142.25;100.00;58004.16;4961633;28;19926;-55
2023/03/30 07:07:46;;;;;;;;;;;;;;;-142.25;100.00;58004.16;4978490;28;20049;-58
2023/03/30 07:10:12;;;;;;;;;;;;;;;-142.25;100.00;58004.16;4959339;28;19983;-59
2023/03/30 07:12:38;;;;;;;;;;;;;;;-142.25;100.00;58004.16;4975026;28;20369;-60
2023/03/30 07:15:06;;;;;;;;;;;;;;;-142.25;100.00;58004.16;4987697;28;19992;-57
2023/03/30 07:17:32;;;;;;;;;;;;;;;-142.25;100.00;58004.16;4960999;28;19926;-58
2023/03/30 07:19:57;;;;;;;;;;;;;;;-142.25;100.00;58004.16;4971763;28;19965;-57
2023/03/30 07:22:23;;;;;;;;;;;;;;;-142.25;100.00;58004.16;4969907;28;20355;-57
2023/03/30 07:24:51;;;;;;;;;;;;;;;-142.25;100.00;58004.16;4957707;28;19936;-59
2023/03/30 07:27:17;;;;;;;;;;;;;;;-142.25;100.00;58004.16;4956360;28;19926;-62
2023/03/30 07:29:42;;;;;;;;;;;;;;;-142.25;100.00;58004.16;5013102;28;19929;-58
2023/03/30 07:32:08;;;;;;;;;;;;;;;-142.25;100.00;58004.16;5038304;28;20341;-59
2023/03/30 07:34:33;;;;;;;;;;;;;;;-142.25;100.00;58004.16;5029377;28;20154;-57
2023/03/30 07:37:00;;;;;;;;;;;;;;;-142.25;100.00;58004.16;5028627;28;20419;-58
2023/03/30 07:39:29;;;;;;;;;;;;;;;-142.25;100.00;58004.16;5029788;28;19924;-58
2023/03/30 07:42:04;;;;;;;;;;;;;;;-142.25;100.00;58004.16;5061500;28;19931;-58
2023/03/30 07:44:30;;;;;;;;;;;;;;;-142.25;100.00;58004.16;5028437;28;20339;-53
2023/03/30 07:47:00;;;;;;;;;;;;;;;-142.25;100.00;58004.16;5030132;28;20377;-59
2023/03/30 07:49:26;;;;;;;;;;;;;;;-142.25;100.00;58004.16;5029657;28;19925;-59
2023/03/30 07:51:52;;;;;;;;;;;;;;;-142.25;100.00;58004.16;5034616;28;20010;-58
2023/03/30 07:54:22;;;;;;;;;;;;;;;-142.25;100.00;58004.16;5028747;28;20390;-59
2023/03/30 07:56:58;;;;;;;;;;;;;;;-142.25;100.00;58004.16;5060225;28;19960;-59
2023/03/30 07:59:24;;;;;;;;;;;;;;;-142.25;100.00;58004.16;5028996;28;20376;-57
2023/03/30 08:01:53;;;;;;;;;;;;;;;-142.25;100.00;58004.16;5059819;28;19925;-58
2023/03/30 08:04:38;;;;;;;;;;;;;;;-142.25;100.00;58004.16;5031305;28;20550;-58
2023/03/30 08:07:04;;;;;;;;;;;;;;;-142.25;100.00;58004.16;5034345;28;19929;-57
2023/03/30 08:09:30;;;;;;;;;;;;;;;-142.25;100.00;58004.16;5024739;28;19925;-58
2023/03/30 08:11:56;;;;;;;;;;;;;;;-142.25;100.00;58004.16;5027388;28;19921;-59
2023/03/30 08:14:25;;;;;;;;;;;;;;;-142.25;100.00;58004.16;5035482;28;19921;-59
2023/03/30 08:16:52;;;;;;;;;;;;;;;-142.25;100.00;58004.16;5025145;28;20122;-58
2023/03/30 08:19:17;;;;;;;;;;;;;;;-142.25;100.00;58004.16;5033008;28;19927;-58
2023/03/30 08:21:43;;;;;;;;;;;;;;;-142.25;100.00;58004.16;5027403;28;20028;-59
2023/03/30 08:24:09;;;;;;;;;;;;;;;-142.25;100.00;58004.16;5027338;28;19925;-58
2023/03/30 08:26:35;;;;;;;;;;;;;;;-142.25;100.00;58004.16;5024663;28;19982;-57
2023/03/30 08:29:01;;;;;;;;;;;;;;;-142.25;100.00;58004.16;5033072;28;20020;-59
2023/03/30 08:31:26;;;;;;;;;;;;;;;-142.25;100.00;58004.16;5033284;28;19931;-56
2023/03/30 08:33:52;;;;;;;;;;;;;;;-142.25;100.00;58004.16;5028021;28;19924;-59
2023/03/30 08:36:19;;;;;;;;;;;;;;;-142.25;100.00;58004.16;5029873;28;20339;-59
2023/03/30 08:38:45;;;;;;;;;;;;;;;-142.25;100.00;58004.16;5028124;28;20051;-58
2023/03/30 08:41:20;;;;;;;;;;;;;;;-142.25;100.00;58004.16;5026109;28;19925;-58
2023/03/30 08:43:48;;;;;;;;;;;;;;;-142.25;100.00;58004.16;5025041;28;19924;-58
2023/03/30 08:46:14;;;;;;;;;;;;;;;-142.25;100.00;58004.16;5025511;28;20378;-58
2023/03/30 08:48:41;;;;;;;;;;;;;;;-142.25;100.00;58004.16;5023759;28;19954;-59
2023/03/30 08:51:16;;;;;;;;;;;;;;;-142.25;100.00;58004.16;5028068;28;19971;-58
2023/03/30 08:53:41;;;;;;;;;;;;;;;-142.25;100.00;58004.16;5028363;28;19921;-59
2023/03/30 08:56:15;;;;;;;;;;;;;;;-142.25;100.00;58004.16;5025108;28;19928;-59
2023/03/30 08:58:59;;;;;;;;;;;;;;;-142.25;100.00;58004.16;5028200;28;20384;-59
2023/03/30 09:01:29;;;;;;;;;;;;;;;-142.25;100.00;58004.16;5027931;28;20315;-59
2023/03/30 09:03:54;;;;;;;;;;;;;;;-142.25;100.00;58004.16;5026573;28;20037;-59
2023/03/30 09:06:26;;;;;;;;;;;;;;;-142.25;100.00;58004.16;5027312;28;20380;-59
2023/03/30 09:08:52;;;;;;;;;;;;;;;-142.25;100.00;58004.16;5027039;28;19957;-60
2023/03/30 09:11:23;;;;;;;;;;;;;;;-142.25;100.00;58004.16;5043512;28;20004;-59
2023/03/30 09:13:50;;;;;;;;;;;;;;;-142.25;100.00;58004.16;5026887;28;20368;-59
2023/03/30 09:16:31;;;;;;;;;;;;;;;-142.25;100.00;58004.16;5026444;28;19920;-59
2023/03/30 09:18:58;;;;;;;;;;;;;;;-142.25;100.00;58004.16;5027034;28;19920;-60
2023/03/30 09:21:27;;;;;;;;;;;;;;;-142.25;100.00;58004.16;5026107;28;19984;-60
2023/03/30 09:23:55;;;;;;;;;;;;;;;-142.25;100.00;58004.16;5022545;28;19928;-62
2023/03/30 09:26:42;;;;;;;;;;;;;;;-142.25;100.00;58004.16;5026065;28;20292;-59
2023/03/30 09:29:12;;;;;;;;;;;;;;;-142.25;100.00;58004.16;5026476;28;20451;-59
2023/03/30 09:31:45;;;;;;;;;;;;;;;-142.25;100.00;58004.16;5026596;28;20467;-59
2023/03/30 09:34:29;;;;;;;;;;;;;;;-142.25;100.00;58004.16;5026512;28;20104;-60
2023/03/30 09:36:59;;;;;;;;;;;;;;;-142.25;100.00;58004.16;5026327;28;19920;-58
2023/03/30 09:39:26;;;;;;;;;;;;;;;-142.25;100.00;58004.16;5026122;28;19921;-60
2023/03/30 09:42:04;;;;;;;;;;;;;;;-142.25;100.00;58004.16;5025541;28;20464;-61
2023/03/30 09:44:30;;;;;;;;;;;;;;;-142.25;100.00;58004.16;5025908;28;19991;-59
2023/03/30 09:46:57;;;;;;;;;;;;;;;-142.25;100.00;58004.16;5027625;28;19974;-60
2023/03/30 09:49:25;;;;;;;;;;;;;;;-142.25;100.00;58004.16;5028826;28;19927;-59
2023/03/30 09:51:52;;;;;;;;;;;;;;;-142.25;100.00;58004.16;5060691;28;19971;-60
2023/03/30 09:54:20;;;;;;;;;;;;;;;-142.25;100.00;58004.16;5031234;28;19940;-60
2023/03/30 09:56:50;;;;;;;;;;;;;;;-142.25;100.00;58004.16;5033125;28;19921;-60
2023/03/30 09:59:31;;;;;;;;;;;;;;;-142.25;100.00;58004.16;5027766;28;19928;-60
2023/03/30 10:02:23;;;;;;;;;;;;;;;-142.25;100.00;58004.16;5027631;28;19920;-60
2023/03/30 10:04:51;;;;;;;;;;;;;;;-142.25;100.00;58004.16;5028164;28;19932;-60
2023/03/30 10:07:50;;;;;;;;;;;;;;;-142.25;100.00;58004.16;5034005;28;19921;-60
2023/03/30 10:10:26;;;;;;;;;;;;;;;-142.25;100.00;58004.16;4993745;28;19969;-61
2023/03/30 10:13:01;;;;;;;;;;;;;;;-142.25;100.00;58004.16;5032786;28;19975;-61
2023/03/30 10:15:30;;;;;;;;;;;;;;;-142.25;100.00;58004.16;5032705;28;19952;-60
2023/03/30 10:17:59;;;;;;;;;;;;;;;-142.25;100.00;58004.16;5026972;28;20205;-63
2023/03/30 10:20:27;;;;;;;;;;;;;;;-142.25;100.00;58004.16;5031593;28;19921;-60
2023/03/30 10:22:53;;;;;;;;;;;;;;;-142.25;100.00;58004.16;5029103;28;20463;-61
2023/03/30 10:25:22;;;;;;;;;;;;;;;-142.25;100.00;58004.16;5031250;28;19921;-59
2023/03/30 10:27:52;;;;;;;;;;;;;;;-142.25;100.00;58004.16;5031379;28;19927;-57
2023/03/30 10:30:20;;;;;;;;;;;;;;;-142.25;100.00;58004.16;5031189;28;19920;-58
2023/03/30 10:32:46;;;;;;;;;;;;;;;-142.25;100.00;58004.16;5031166;28;19947;-57
2023/03/30 10:35:16;;;;;;;;;;;;;;;-142.25;100.00;58004.16;5031186;28;20364;-54
2023/03/30 10:37:43;;;;;;;;;;;;;;;-142.25;100.00;58004.16;5030932;28;19928;-63
2023/03/30 10:40:15;;;;;;;;;;;;;;;-142.25;100.00;58004.16;5038516;28;19997;-59
2023/03/30 10:42:41;;;;;;;;;;;;;;;-142.25;100.00;58004.16;5029127;28;20464;-60
2023/03/30 10:45:06;;;;;;;;;;;;;;;-142.25;100.00;58004.16;5027476;28;20383;-59
2023/03/30 10:47:41;;;;;;;;;;;;;;;-142.25;100.00;58004.16;5029122;28;19933;-59
2023/03/30 10:50:15;;;;;;;;;;;;;;;-142.25;100.00;58004.16;5030025;28;19967;-60
2023/03/30 10:52:51;;;;;;;;;;;;;;;-142.25;100.00;58004.16;5031233;28;19921;-58
2023/03/30 10:55:16;;;;;;;;;;;;;;;-142.25;100.00;58004.16;5027557;28;20417;-59
2023/03/30 10:57:49;;;;;;;;;;;;;;;-142.25;100.00;58004.16;5045990;28;19917;-59
2023/03/30 11:00:21;;;;;;;;;;;;;;;-142.25;100.00;58004.16;5028535;28;19995;-59
2023/03/30 11:02:52;;;;;;;;;;;;;;;-142.25;100.00;58004.16;5027569;28;20015;-58
2023/03/30 11:05:21;;;;;;;;;;;;;;;-142.25;100.00;58004.16;5028735;28;19928;-59
2023/03/30 11:08:10;;;;;;;;;;;;;;;-142.25;100.00;58004.16;5038783;28;19921;-58
2023/03/30 11:10:37;;;;;;;;;;;;;;;-142.25;100.00;58004.16;5028836;28;19966;-58
2023/03/30 11:13:10;;;;;;;;;;;;;;;-142.25;100.00;58004.16;5029754;28;19963;-59
2023/03/30 11:15:45;;;;;;;;;;;;;;;-142.25;100.00;58004.16;5029923;28;19924;-58
2023/03/30 11:18:15;;;;;;;;;;;;;;;-142.25;100.00;58004.16;5026061;28;20289;-59
2023/03/30 11:20:50;;;;;;;;;;;;;;;-142.25;100.00;58004.16;5027130;28;19920;-58
2023/03/30 11:23:18;;;;;;;;;;;;;;;-142.25;100.00;58004.16;5029379;28;20027;-60
2023/03/30 11:26:01;;;;;;;;;;;;;;;-142.25;100.00;58004.16;5027525;28;19928;-62
2023/03/30 11:28:49;;;;;;;;;;;;;;;-142.25;100.00;58004.16;5024530;28;19924;-57
2023/03/30 11:31:28;;;;;;;;;;;;;;;-142.25;100.00;58004.16;5025848;28;20000;-60
2023/03/30 11:33:57;;;;;;;;;;;;;;;-142.25;100.00;58004.16;5027881;28;20239;-58
2023/03/30 11:36:28;;;;;;;;;;;;;;;-142.25;100.00;58004.16;5031420;28;19943;-60
2023/03/30 11:39:04;;;;;;;;;;;;;;;-142.25;100.00;58004.16;5028839;28;20382;-58
2023/03/30 11:41:39;;;;;;;;;;;;;;;-142.25;100.00;58004.16;5029057;28;19929;-58
2023/03/30 11:44:08;;;;;;;;;;;;;;;-142.25;100.00;58004.16;5030689;28;20261;-58
2023/03/30 11:46:33;;;;;;;;;;;;;;;-142.25;100.00;58004.16;5029124;28;19921;-58
2023/03/30 11:48:58;;;;;;;;;;;;;;;-142.25;100.00;58004.16;5029212;28;20362;-59
2023/03/30 11:51:24;;;;;;;;;;;;;;;-142.25;100.00;58004.16;5027877;28;19920;-58
2023/03/30 11:53:52;;;;;;;;;;;;;;;-142.25;100.00;58004.16;5025208;28;19925;-58
2023/03/30 11:56:38;;;;;;;;;;;;;;;-142.25;100.00;58004.16;5025904;28;20012;-58
2023/03/30 11:59:05;;;;;;;;;;;;;;;-142.25;100.00;58004.16;5028615;28;19944;-60
2023/03/30 12:01:39;;;;;;;;;;;;;;;-142.25;100.00;58004.16;5027538;28;19932;-60
2023/03/30 12:04:08;;;;;;;;;;;;;;;-142.25;100.00;58004.16;5028704;28;20011;-60
2023/03/30 12:06:40;;;;;;;;;;;;;;;-142.25;100.00;58004.16;5027634;28;20336;-60
2023/03/30 12:09:25;;;;;;;;;;;;;;;-142.25;100.00;58004.16;5042056;28;20502;-60
2023/03/30 12:12:14;;;;;;;;;;;;;;;-142.25;100.00;58004.16;5024684;28;19951;-60
2023/03/30 12:14:58;;;;;;;;;;;;;;;-142.25;100.00;58004.16;5028045;28;19924;-61
2023/03/30 12:17:46;;;;;;;;;;;;;;;-142.25;100.00;58004.16;5028303;28;20496;-60
2023/03/30 12:20:25;;;;;;;;;;;;;;;-142.25;100.00;58004.16;5027314;28;19927;-59
2023/03/30 12:23:09;;;;;;;;;;;;;;;-142.25;100.00;58004.16;5028535;28;19968;-60
2023/03/30 12:25:39;;;;;;;;;;;;;;;-142.25;100.00;58004.16;5026383;28;19991;-60
2023/03/30 12:28:07;;;;;;;;;;;;;;;-142.25;100.00;58004.16;5024796;28;19968;-60
2023/03/30 12:30:53;;;;;;;;;;;;;;;-142.25;100.00;58004.16;5024787;28;19920;-59
2023/03/30 12:33:26;;;;;;;;;;;;;;;-142.25;100.00;58004.16;5025914;28;19964;-59
2023/03/30 12:35:54;;;;;;;;;;;;;;;-142.25;100.00;58004.16;5027982;28;20006;-60
2023/03/30 12:38:24;;;;;;;;;;;;;;;-142.25;100.00;58004.16;5028856;28;20016;-59
2023/03/30 12:41:13;;;;;;;;;;;;;;;-142.25;100.00;58004.16;5026020;28;20500;-63
2023/03/30 12:43:41;;;;;;;;;;;;;;;-142.25;100.00;58004.16;5026464;28;19921;-60
2023/03/30 12:46:07;;;;;;;;;;;;;;;-142.25;100.00;58004.16;5027900;28;19944;-60
2023/03/30 12:48:48;;;;;;;;;;;;;;;-142.25;100.00;58004.16;5028563;28;19921;-60